Time;durP1;ratioP1;P1;durP2;ratioP2;P2;SDS_P1;SDS_P2;PMS_P1;PMS_P2;Temp;Humidity;BMP_temperature;BMP_pressure;BME280_temperature;BME280_humidity;BME280_pressure;Samples;Min_cycle;Max_cycle;Signal;HPM_P1;HPM_P2
2023/10/14 00:01:34;;;;;;;2.97;1.07;;;16.90;99.90;;;;;;5073403;28;20165;-70
2023/10/14 00:04:04;;;;;;;4.20;1.30;;;16.40;99.90;;;;;;5071681;28;20265;-72
2023/10/14 00:06:29;;;;;;;4.67;1.03;;;16.20;99.90;;;;;;5073188;28;20675;-72
2023/10/14 00:08:57;;;;;;;1.67;1.03;;;16.10;99.90;;;;;;5073461;28;20222;-71
2023/10/14 00:11:26;;;;;;;1.60;1.20;;;16.10;99.90;;;;;;5073343;28;20636;-72
2023/10/14 00:13:52;;;;;;;1.73;0.97;;;15.90;99.90;;;;;;5072939;28;20185;-72
2023/10/14 00:16:35;;;;;;;1.83;0.97;;;15.90;99.90;;;;;;5073371;28;20505;-72
2023/10/14 00:19:04;;;;;;;1.70;0.90;;;15.80;99.90;;;;;;5073252;28;20186;-73
2023/10/14 00:21:35;;;;;;;1.20;1.10;;;15.90;99.90;;;;;;5073105;28;20216;-72
2023/10/14 00:24:06;;;;;;;1.90;1.03;;;15.80;99.90;;;;;;5071977;28;20168;-72
2023/10/14 00:26:32;;;;;;;2.00;1.30;;;15.70;99.90;;;;;;5073213;28;20269;-72
2023/10/14 00:31:44;;;;;;;1.93;1.40;;;15.50;99.90;;;;;;5073212;28;20167;-72
2023/10/14 00:34:09;;;;;;;1.30;0.80;;;15.50;99.90;;;;;;5072923;28;20186;-73
2023/10/14 00:36:35;;;;;;;0.80;0.80;;;15.50;99.90;;;;;;5072923;28;20184;-73
2023/10/14 00:39:01;;;;;;;0.83;0.70;;;15.40;99.90;;;;;;5073032;28;20518;-73
2023/10/14 00:41:27;;;;;;;0.83;0.63;;;15.40;99.90;;;;;;5073010;28;20667;-74
2023/10/14 00:43:56;;;;;;;0.67;0.60;;;15.40;99.90;;;;;;5072612;28;20165;-73
2023/10/14 00:46:23;;;;;;;2.93;1.57;;;15.20;99.90;;;;;;5073158;28;20192;-74
2023/10/14 00:48:51;;;;;;;2.77;1.80;;;15.10;99.90;;;;;;5072780;28;20643;-73
2023/10/14 00:51:19;;;;;;;5.30;2.07;;;14.90;99.90;;;;;;5072780;28;20502;-74
2023/10/14 00:53:52;;;;;;;2.77;1.77;;;14.80;99.90;;;;;;5072813;28;20172;-73
2023/10/14 00:56:27;;;;;;;5.33;1.57;;;14.70;99.90;;;;;;5072818;28;20169;-73
2023/10/14 00:59:03;;;;;;;2.73;1.40;;;14.50;99.90;;;;;;5072524;28;20654;-73
2023/10/14 01:01:32;;;;;;;6.90;1.80;;;14.40;99.90;;;;;;5071488;28;20214;-73
2023/10/14 01:04:18;;;;;;;8.57;2.27;;;14.40;99.90;;;;;;5072664;28;20185;-73
2023/10/14 01:07:12;;;;;;;6.60;2.20;;;14.20;99.90;;;;;;5072385;28;20216;-74
2023/10/14 01:14:58;;;;;;;5.07;2.40;;;14.00;99.90;;;;;;5073440;28;20176;-73
2023/10/14 01:17:27;;;;;;;8.27;2.70;;;14.00;99.90;;;;;;5076558;28;20176;-74
2023/10/14 01:19:53;;;;;;;7.93;2.03;;;13.90;99.90;;;;;;5076387;28;20691;-74
2023/10/14 01:22:19;;;;;;;12.10;2.83;;;13.90;99.90;;;;;;5076031;28;20231;-75
2023/10/14 01:24:45;;;;;;;9.77;2.87;;;13.90;99.90;;;;;;5076240;28;20259;-74
2023/10/14 01:27:13;;;;;;;11.67;3.03;;;13.90;99.90;;;;;;5075800;28;20659;-74
2023/10/14 01:29:39;;;;;;;13.13;2.93;;;13.90;99.90;;;;;;5076031;28;20172;-73
2023/10/14 01:32:42;;;;;;;12.03;3.63;;;13.90;99.90;;;;;;5076184;28;20189;-74
2023/10/14 01:35:31;;;;;;;11.50;3.50;;;14.00;99.90;;;;;;5074788;28;20534;-73
2023/10/14 01:37:59;;;;;;;14.43;4.13;;;14.00;99.90;;;;;;5075954;28;20180;-74
2023/10/14 01:40:36;;;;;;;13.53;4.20;;;13.90;99.90;;;;;;5075699;28;20200;-74
2023/10/14 01:43:05;;;;;;;12.47;4.10;;;13.90;99.90;;;;;;5075869;28;20263;-74
2023/10/14 01:46:00;;;;;;;14.00;3.63;;;13.90;99.90;;;;;;5075830;28;20263;-74
2023/10/14 01:48:31;;;;;;;13.63;3.80;;;13.90;99.90;;;;;;5075514;28;20188;-74
2023/10/14 01:50:57;;;;;;;9.17;3.43;;;13.90;99.90;;;;;;5075972;28;20184;-74
2023/10/14 01:53:31;;;;;;;18.80;3.70;;;13.80;99.90;;;;;;5074673;28;20177;-74
2023/10/14 01:55:59;;;;;;;12.83;3.30;;;13.90;99.90;;;;;;5075390;28;20188;-74
2023/10/14 02:00:56;;;;;;;10.67;3.53;;;13.90;99.90;;;;;;5075524;28;20202;-74
2023/10/14 02:03:22;;;;;;;19.17;3.80;;;13.80;99.90;;;;;;5074224;28;20556;-74
2023/10/14 02:05:51;;;;;;;12.70;3.40;;;13.80;99.90;;;;;;5075337;28;20185;-74
2023/10/14 02:08:21;;;;;;;14.03;3.73;;;13.70;99.90;;;;;;5075485;28;20172;-74
2023/10/14 02:10:51;;;;;;;13.80;3.07;;;13.70;99.90;;;;;;5075214;28;20171;-74
2023/10/14 02:13:19;;;;;;;14.80;3.17;;;13.70;99.90;;;;;;5075284;28;20207;-75
2023/10/14 02:15:49;;;;;;;11.93;3.40;;;13.60;99.90;;;;;;5075129;28;20629;-74
2023/10/14 02:18:20;;;;;;;14.67;3.13;;;13.60;99.90;;;;;;5075410;28;20234;-73
2023/10/14 02:21:11;;;;;;;14.87;3.40;;;13.60;99.90;;;;;;5074924;28;20177;-75
2023/10/14 02:23:44;;;;;;;17.60;3.30;;;13.60;99.90;;;;;;5075169;28;20173;-74
2023/10/14 02:26:30;;;;;;;10.80;3.50;;;13.60;99.90;;;;;;5074415;28;20544;-74
2023/10/14 02:28:57;;;;;;;11.00;3.27;;;13.50;99.90;;;;;;5075122;28;20165;-74
2023/10/14 02:33:53;;;;;;;12.63;3.50;;;13.40;99.90;;;;;;5075220;28;20180;-74
2023/10/14 02:36:18;;;;;;;11.83;2.97;;;13.40;99.90;;;;;;5073757;28;20181;-73
2023/10/14 02:38:54;;;;;;;12.57;3.33;;;13.40;99.90;;;;;;5073449;28;20180;-73
2023/10/14 02:41:31;;;;;;;15.03;3.37;;;13.30;99.90;;;;;;5074877;28;20537;-73
2023/10/14 02:44:19;;;;;;;11.27;2.77;;;13.20;99.90;;;;;;5074821;28;20648;-73
2023/10/14 02:46:45;;;;;;;17.07;3.47;;;13.10;99.90;;;;;;5074665;28;20216;-73
2023/10/14 02:49:14;;;;;;;13.37;4.20;;;13.00;99.90;;;;;;5074682;28;20173;-73
2023/10/14 02:51:44;;;;;;;15.23;3.50;;;12.90;99.90;;;;;;5074554;28;20694;-74
2023/10/14 02:55:18;;;;;;;13.50;3.20;;;12.90;99.90;;;;;;5074270;28;20199;-74
2023/10/14 02:56:59;;;;;;;12.93;3.03;;;12.80;99.90;;;;;;5067172;28;20700;-73
2023/10/14 02:59:43;;;;;;;10.97;3.20;;;12.60;99.90;;;;;;5074323;28;20651;-73
2023/10/14 03:02:54;;;;;;;12.87;3.60;;;12.50;99.90;;;;;;5074633;28;20161;-73
2023/10/14 03:05:35;;;;;;;12.87;3.13;;;12.50;99.90;;;;;;5074365;28;20161;-74
2023/10/14 03:08:11;;;;;;;8.03;3.17;;;12.40;99.90;;;;;;5074256;28;20177;-73
2023/10/14 03:10:39;;;;;;;13.60;2.93;;;12.30;99.90;;;;;;5074383;28;20230;-72
2023/10/14 03:13:11;;;;;;;10.93;3.10;;;12.20;99.90;;;;;;5074106;28;20176;-72
2023/10/14 03:15:38;;;;;;;11.53;3.00;;;12.20;99.90;;;;;;5074077;28;20259;-74
2023/10/14 03:18:05;;;;;;;14.00;2.93;;;12.20;99.90;;;;;;5072438;28;20568;-74
2023/10/14 03:20:36;;;;;;;16.20;3.37;;;12.20;99.90;;;;;;5073885;28;20260;-73
2023/10/14 03:23:22;;;;;;;14.67;3.33;;;12.10;99.90;;;;;;5073918;28;20191;-73
2023/10/14 03:26:14;;;;;;;13.20;2.93;;;12.00;99.90;;;;;;5073841;28;20172;-73
2023/10/14 03:28:44;;;;;;;14.27;3.03;;;12.00;99.90;;;;;;5073872;28;20168;-72
2023/10/14 03:31:14;;;;;;;10.37;2.73;;;12.00;99.90;;;;;;5073862;28;20196;-73
2023/10/14 03:33:43;;;;;;;10.27;2.63;;;11.90;99.90;;;;;;5073456;28;20182;-72
2023/10/14 03:36:15;;;;;;;12.23;3.03;;;11.80;99.90;;;;;;5073723;28;20218;-74
2023/10/14 03:38:46;;;;;;;18.07;2.93;;;11.80;99.90;;;;;;5072731;28;20188;-73
2023/10/14 03:41:19;;;;;;;14.60;2.90;;;11.70;99.90;;;;;;5073604;28;20648;-74
2023/10/14 03:48:57;;;;;;;12.50;2.43;;;11.60;99.90;;;;;;5073418;28;20219;-74
2023/10/14 03:53:56;;;;;;;11.83;2.80;;;11.50;99.90;;;;;;5073417;28;20164;-72
2023/10/14 03:56:25;;;;;;;12.47;3.17;;;11.50;99.90;;;;;;5073392;28;20259;-72
2023/10/14 03:58:58;;;;;;;9.67;3.00;;;11.50;99.90;;;;;;5073320;28;20247;-73
2023/10/14 04:01:28;;;;;;;7.13;2.40;;;11.50;99.90;;;;;;5089335;28;20586;-73
2023/10/14 04:03:55;;;;;;;11.87;2.87;;;11.40;99.90;;;;;;5072866;28;20200;-72
2023/10/14 04:06:20;;;;;;;16.50;2.40;;;11.40;99.90;;;;;;5072813;28;20200;-74
2023/10/14 04:08:48;;;;;;;11.30;2.57;;;11.30;99.90;;;;;;5073175;28;20168;-73
2023/10/14 04:11:28;;;;;;;11.63;3.17;;;11.20;99.90;;;;;;5073120;28;20200;-72
2023/10/14 04:22:01;;;;;;;10.27;2.40;;;11.30;99.90;;;;;;5072121;28;20231;-72
2023/10/14 04:24:45;;;;;;;12.83;2.63;;;11.30;99.90;;;;;;5072927;28;20175;-72
2023/10/14 04:27:22;;;;;;;9.53;2.60;;;11.30;99.90;;;;;;5072910;28;20216;-72
2023/10/14 04:29:51;;;;;;;12.70;2.57;;;11.30;99.90;;;;;;5072958;28;20208;-72
2023/10/14 04:32:27;;;;;;;8.97;2.57;;;11.20;99.90;;;;;;5073206;28;20172;-72
2023/10/14 04:34:58;;;;;;;9.50;2.20;;;11.20;99.90;;;;;;5072711;28;20172;-71
2023/10/14 04:37:27;;;;;;;9.53;2.70;;;11.20;99.90;;;;;;5073022;28;20183;-72
2023/10/14 04:39:58;;;;;;;10.50;2.83;;;11.10;99.90;;;;;;5072797;28;20181;-72
2023/10/14 04:42:35;;;;;;;9.20;2.63;;;11.20;99.90;;;;;;5072686;28;20173;-72
2023/10/14 04:45:03;;;;;;;9.70;2.60;;;11.20;99.90;;;;;;5071491;28;20569;-73
2023/10/14 04:47:38;;;;;;;11.17;3.00;;;11.10;99.90;;;;;;5072777;28;20705;-71
2023/10/14 04:50:13;;;;;;;10.10;2.70;;;11.10;99.90;;;;;;5075439;28;20611;-72
2023/10/14 04:52:41;;;;;;;10.00;2.70;;;11.10;99.90;;;;;;5076870;28;20168;-72
2023/10/14 04:55:32;;;;;;;13.43;3.00;;;11.10;99.90;;;;;;5076203;28;20172;-72
2023/10/14 04:58:15;;;;;;;10.33;2.77;;;11.00;99.90;;;;;;5075826;28;20187;-72
2023/10/14 05:00:42;;;;;;;13.63;3.00;;;11.00;99.90;;;;;;5076871;28;20279;-72
2023/10/14 05:03:14;;;;;;;8.87;2.67;;;11.00;99.90;;;;;;5076521;28;20545;-72
2023/10/14 05:05:46;;;;;;;13.80;2.80;;;11.00;99.90;;;;;;5075983;28;20173;-72
2023/10/14 05:08:15;;;;;;;17.30;3.33;;;11.00;99.90;;;;;;5076293;28;20268;-72
2023/10/14 05:10:43;;;;;;;10.07;2.77;;;10.90;99.90;;;;;;5076200;28;20255;-73
2023/10/14 05:13:09;;;;;;;13.10;2.90;;;10.90;99.90;;;;;;5076270;28;20176;-72
2023/10/14 05:15:41;;;;;;;19.90;3.23;;;10.90;99.90;;;;;;5076016;28;20255;-72
2023/10/14 05:18:07;;;;;;;10.03;2.93;;;10.80;99.90;;;;;;5075963;28;20192;-71
2023/10/14 05:23:19;;;;;;;10.07;2.80;;;10.70;99.90;;;;;;5075972;28;20184;-74
2023/10/14 05:25:57;;;;;;;20.07;2.83;;;10.70;99.90;;;;;;5075843;28;20168;-71
2023/10/14 05:28:29;;;;;;;14.20;2.83;;;10.70;99.90;;;;;;5076116;28;20267;-73
2023/10/14 05:31:00;;;;;;;15.33;3.07;;;10.70;99.90;;;;;;5076108;28;20243;-72
2023/10/14 05:33:27;;;;;;;11.60;2.93;;;10.70;99.90;;;;;;5075558;28;20169;-74
2023/10/14 05:35:56;;;;;;;11.70;3.23;;;10.70;99.90;;;;;;5075708;28;20191;-73
2023/10/14 05:38:22;;;;;;;10.57;2.70;;;10.70;99.90;;;;;;5075806;28;20165;-72
2023/10/14 05:40:55;;;;;;;19.80;3.10;;;10.70;99.90;;;;;;5075732;28;20169;-72
2023/10/14 05:43:22;;;;;;;7.50;3.10;;;10.70;99.90;;;;;;5075659;28;20181;-73
2023/10/14 05:45:48;;;;;;;10.07;2.80;;;10.70;99.90;;;;;;5075561;28;20168;-72
2023/10/14 05:48:13;;;;;;;9.83;2.87;;;10.60;99.90;;;;;;5075139;28;20183;-72
2023/10/14 05:50:40;;;;;;;9.63;2.70;;;10.60;99.90;;;;;;5075475;28;20259;-72
2023/10/14 05:53:09;;;;;;;13.43;3.33;;;10.60;99.90;;;;;;5075528;28;20629;-73
2023/10/14 05:55:35;;;;;;;13.03;2.67;;;10.50;99.90;;;;;;5075546;28;20195;-72
2023/10/14 05:58:00;;;;;;;12.13;2.90;;;10.60;99.90;;;;;;5074134;28;20198;-72
2023/10/14 06:00:27;;;;;;;11.07;3.00;;;10.50;99.90;;;;;;5074259;28;20271;-72
2023/10/14 06:02:55;;;;;;;15.97;3.43;;;10.50;99.90;;;;;;5075100;28;20211;-71
2023/10/14 06:05:23;;;;;;;19.37;2.90;;;10.50;99.90;;;;;;5075298;28;20172;-73
2023/10/14 06:07:48;;;;;;;11.53;3.20;;;10.50;99.90;;;;;;5074974;28;20284;-72
2023/10/14 06:10:20;;;;;;;13.07;2.80;;;10.50;99.90;;;;;;5075376;28;20168;-72
2023/10/14 06:12:48;;;;;;;15.33;3.03;;;10.50;99.90;;;;;;5075205;28;20271;-72
2023/10/14 06:15:17;;;;;;;10.37;2.93;;;10.50;99.90;;;;;;5074874;28;20196;-71
2023/10/14 06:17:47;;;;;;;9.33;2.73;;;10.50;99.90;;;;;;5074670;28;20617;-73
2023/10/14 06:20:14;;;;;;;17.77;2.77;;;10.50;99.90;;;;;;5075185;28;20156;-73
2023/10/14 06:22:41;;;;;;;10.70;3.10;;;10.50;99.90;;;;;;5074675;28;20219;-72
2023/10/14 06:25:07;;;;;;;10.23;2.67;;;10.50;99.90;;;;;;5075254;28;20161;-72
2023/10/14 06:27:33;;;;;;;7.83;2.70;;;10.60;99.90;;;;;;5074781;28;20243;-74
2023/10/14 06:29:58;;;;;;;14.80;3.30;;;10.60;99.90;;;;;;5074567;28;20556;-73
2023/10/14 06:32:24;;;;;;;7.50;3.20;;;10.60;99.90;;;;;;5074412;28;20173;-71
2023/10/14 06:34:59;;;;;;;11.27;2.97;;;10.70;99.90;;;;;;5074988;28;20250;-72
2023/10/14 06:37:25;;;;;;;16.13;3.30;;;10.70;99.90;;;;;;5074579;28;20195;-72
2023/10/14 06:39:52;;;;;;;6.53;2.47;;;10.70;99.90;;;;;;5074272;28;20223;-74
2023/10/14 06:42:22;;;;;;;12.70;2.93;;;10.80;99.90;;;;;;5074358;28;20631;-72
2023/10/14 06:44:48;;;;;;;13.60;2.77;;;10.90;99.90;;;;;;5074737;28;20180;-73
2023/10/14 06:47:14;;;;;;;11.13;2.77;;;11.00;99.90;;;;;;5074114;28;20204;-72
2023/10/14 06:49:41;;;;;;;17.03;3.00;;;11.00;99.90;;;;;;5074447;28;20175;-73
2023/10/14 06:52:13;;;;;;;18.00;3.17;;;11.10;99.90;;;;;;5074252;28;20542;-73
2023/10/14 06:54:41;;;;;;;8.83;2.87;;;11.30;99.90;;;;;;5074054;28;20165;-74
2023/10/14 06:57:09;;;;;;;9.83;3.20;;;11.80;99.90;;;;;;5074420;28;20169;-74
2023/10/14 06:59:38;;;;;;;13.50;2.97;;;12.60;99.90;;;;;;5074099;28;20164;-73
2023/10/14 07:02:03;;;;;;;6.43;2.57;;;13.40;99.90;;;;;;5074626;28;20193;-74
2023/10/14 07:04:29;;;;;;;13.40;2.73;;;14.50;99.90;;;;;;5073925;28;20601;-74
2023/10/14 07:06:58;;;;;;;6.10;2.40;;;15.40;99.90;;;;;;5073752;28;20208;-73
2023/10/14 07:09:27;;;;;;;10.03;2.97;;;16.00;99.90;;;;;;5073898;28;20169;-72
2023/10/14 07:11:55;;;;;;;11.43;2.85;;;17.00;99.90;;;;;;5073475;28;20165;-74
2023/10/14 07:14:21;;;;;;;8.80;2.88;;;17.80;99.90;;;;;;5072899;28;20648;-73
2023/10/14 07:16:46;;;;;;;7.55;3.00;;;18.30;99.90;;;;;;5073874;28;20185;-73
2023/10/14 07:19:12;;;;;;;7.53;2.78;;;19.10;99.90;;;;;;5073776;28;20176;-73
2023/10/14 07:21:38;;;;;;;10.50;3.13;;;18.70;99.90;;;;;;5073417;28;20216;-73
2023/10/14 07:24:07;;;;;;;9.52;2.60;;;19.10;99.90;;;;;;5073973;28;20203;-72
2023/10/14 07:26:39;;;;;;;8.43;3.00;;;19.70;99.60;;;;;;5073699;28;20238;-72
2023/10/14 07:29:05;;;;;;;7.65;2.92;;;20.10;96.90;;;;;;5073391;28;20169;-72
2023/10/14 07:31:32;;;;;;;9.50;2.90;;;20.80;97.00;;;;;;5073294;28;20200;-71
2023/10/14 07:34:08;;;;;;;8.13;2.67;;;21.60;95.00;;;;;;5073687;28;20177;-71
2023/10/14 07:36:35;;;;;;;8.05;2.78;;;22.00;93.10;;;;;;5073120;28;20168;-73
2023/10/14 07:39:27;;;;;;;10.07;3.05;;;22.60;91.50;;;;;;5073367;28;20165;-73
2023/10/14 07:41:52;;;;;;;8.73;3.28;;;22.40;90.40;;;;;;5073234;28;20263;-74
2023/10/14 07:44:18;;;;;;;8.32;3.00;;;22.40;88.20;;;;;;5072772;28;20188;-73
2023/10/14 07:46:44;;;;;;;6.22;2.83;;;22.80;87.20;;;;;;5073221;28;20215;-74
2023/10/14 07:49:10;;;;;;;4.55;2.30;;;23.70;81.00;;;;;;5072952;28;20175;-73
2023/10/14 07:51:36;;;;;;;9.75;2.80;;;24.80;74.70;;;;;;5073396;28;20176;-74
2023/10/14 07:54:02;;;;;;;6.57;2.85;;;25.50;69.80;;;;;;5072869;28;20526;-73
2023/10/14 07:56:28;;;;;;;9.02;2.80;;;25.20;64.70;;;;;;5072726;28;20208;-72
2023/10/14 07:58:55;;;;;;;8.80;2.55;;;25.20;64.30;;;;;;5072649;28;20183;-72
2023/10/14 08:01:23;;;;;;;7.65;2.60;;;23.90;65.00;;;;;;5073134;28;20709;-72
2023/10/14 08:03:48;;;;;;;7.22;2.88;;;23.70;68.30;;;;;;5072947;28;20569;-72
2023/10/14 08:06:17;;;;;;;8.45;2.75;;;24.40;67.20;;;;;;5071450;28;20192;-72
2023/10/14 08:08:47;;;;;;;7.85;2.95;;;25.40;62.90;;;;;;5072493;28;20639;-72
2023/10/14 08:11:16;;;;;;;6.40;2.58;;;25.70;59.30;;;;;;5072541;28;20185;-72
2023/10/14 08:13:42;;;;;;;7.22;2.75;;;25.30;60.10;;;;;;5072650;28;20196;-72
2023/10/14 08:16:08;;;;;;;8.25;2.90;;;25.40;60.20;;;;;;5072802;28;20181;-72
2023/10/14 08:18:35;;;;;;;7.03;2.50;;;25.50;59.10;;;;;;5072666;28;20172;-72
2023/10/14 08:21:01;;;;;;;7.97;2.75;;;24.90;57.30;;;;;;5072607;28;20692;-72
2023/10/14 08:23:30;;;;;;;8.30;3.08;;;24.60;60.20;;;;;;5072271;28;20176;-73
2023/10/14 08:25:57;;;;;;;7.70;2.83;;;25.00;60.20;;;;;;5072732;28;20172;-74
2023/10/14 08:28:27;;;;;;;7.85;2.75;;;25.00;60.00;;;;;;5072261;28;20176;-73
2023/10/14 08:30:55;;;;;;;6.93;3.28;;;24.20;62.50;;;;;;5072424;28;20196;-74
2023/10/14 08:33:23;;;;;;;9.77;3.28;;;24.40;62.10;;;;;;5072863;28;20183;-74
2023/10/14 08:35:51;;;;;;;6.30;2.63;;;25.00;61.20;;;;;;5072601;28;20169;-75
2023/10/14 08:38:27;;;;;;;6.78;2.80;;;25.20;58.80;;;;;;5072845;28;20180;-73
2023/10/14 08:40:54;;;;;;;6.55;2.75;;;25.80;58.10;;;;;;5072236;28;20183;-73
2023/10/14 08:43:30;;;;;;;7.75;2.58;;;25.80;56.70;;;;;;5072170;28;20173;-72
2023/10/14 08:45:59;;;;;;;8.38;2.67;;;25.10;54.20;;;;;;5072687;28;20180;-73
2023/10/14 08:48:27;;;;;;;9.63;2.78;;;24.50;57.60;;;;;;5072280;28;20219;-74
2023/10/14 08:50:55;;;;;;;6.03;2.60;;;25.00;57.60;;;;;;5072367;28;20192;-74
2023/10/14 08:53:22;;;;;;;8.70;2.92;;;24.80;57.20;;;;;;5071730;28;20635;-74
2023/10/14 08:55:48;;;;;;;7.97;2.72;;;25.10;56.60;;;;;;5072422;28;20184;-73
2023/10/14 08:58:14;;;;;;;5.68;2.63;;;25.00;57.50;;;;;;5072418;28;20178;-74
2023/10/14 09:00:43;;;;;;;6.35;2.42;;;24.60;56.80;;;;;;5072448;28;20215;-73
2023/10/14 09:03:09;;;;;;;6.85;2.55;;;23.50;58.60;;;;;;5072592;28;20235;-73
2023/10/14 09:05:40;;;;;;;7.18;2.83;;;24.10;60.30;;;;;;5070883;28;20180;-73
2023/10/14 09:08:11;;;;;;;7.50;2.75;;;23.90;58.50;;;;;;5072073;28;20224;-74
2023/10/14 09:10:37;;;;;;;8.75;2.70;;;24.30;60.20;;;;;;5071994;28;20295;-74
2023/10/14 09:13:09;;;;;;;8.05;2.83;;;23.70;59.40;;;;;;5072438;28;20211;-73
2023/10/14 09:15:42;;;;;;;8.23;2.85;;;23.30;60.50;;;;;;5072182;28;20186;-73
2023/10/14 09:18:18;;;;;;;8.73;2.83;;;23.40;61.40;;;;;;5071688;28;20180;-74
2023/10/14 09:20:45;;;;;;;6.13;2.90;;;23.60;62.50;;;;;;5071863;28;20160;-73
2023/10/14 09:23:44;;;;;;;4.93;2.60;;;23.10;62.80;;;;;;5072148;28;20305;-73
2023/10/14 09:26:08;;;;;;;7.95;2.63;;;23.20;62.00;;;;;;5071641;28;20208;-73
2023/10/14 09:28:40;;;;;;;10.45;2.72;;;23.40;60.80;;;;;;5072054;28;20176;-73
2023/10/14 09:31:07;;;;;;;5.30;2.53;;;24.20;59.60;;;;;;5087289;28;20217;-74
2023/10/14 09:33:37;;;;;;;7.60;2.83;;;23.90;58.40;;;;;;5072024;28;20176;-73
2023/10/14 09:36:05;;;;;;;6.72;2.63;;;24.00;58.90;;;;;;5071704;28;20168;-75
2023/10/14 09:38:32;;;;;;;7.30;2.90;;;23.60;58.40;;;;;;5076156;28;20196;-74
2023/10/14 09:41:02;;;;;;;7.90;2.97;;;22.60;63.20;;;;;;5075480;28;20171;-74
2023/10/14 09:43:29;;;;;;;9.05;2.85;;;22.70;64.80;;;;;;5075284;28;20179;-73
2023/10/14 09:46:08;;;;;;;8.80;3.15;;;22.80;63.00;;;;;;5075333;28;20624;-72
2023/10/14 09:48:35;;;;;;;9.95;3.13;;;23.30;63.00;;;;;;5075626;28;20651;-73
2023/10/14 09:51:02;;;;;;;7.25;2.70;;;22.90;62.60;;;;;;5075783;28;20172;-74
2023/10/14 09:53:32;;;;;;;8.57;2.85;;;20.80;69.60;;;;;;5073072;28;20592;-73
2023/10/14 09:56:04;;;;;;;10.30;3.17;;;20.00;79.90;;;;;;5074370;28;20187;-73
2023/10/14 09:58:34;;;;;;;7.47;2.78;;;20.10;82.50;;;;;;5074811;28;20173;-73
2023/10/14 10:01:01;;;;;;;7.30;2.55;;;20.00;82.70;;;;;;5075201;28;20165;-73
2023/10/14 10:03:32;;;;;;;9.35;3.03;;;20.40;80.90;;;;;;5074658;28;20192;-73
2023/10/14 10:06:24;;;;;;;7.80;2.45;;;20.40;81.80;;;;;;5074996;28;20180;-73
2023/10/14 10:09:09;;;;;;;7.65;2.70;;;19.70;81.20;;;;;;5074788;28;20180;-73
2023/10/14 10:11:36;;;;;;;7.80;2.97;;;19.10;83.10;;;;;;5074780;28;20194;-73
2023/10/14 10:14:05;;;;;;;8.80;2.63;;;19.10;82.10;;;;;;5074470;28;20580;-73
2023/10/14 10:16:33;;;;;;;9.20;2.80;;;19.10;86.90;;;;;;5075201;28;20179;-74
2023/10/14 10:19:00;;;;;;;9.20;3.08;;;19.80;86.50;;;;;;5074629;28;20172;-74
2023/10/14 10:21:30;;;;;;;9.10;3.10;;;20.40;84.00;;;;;;5074277;28;20217;-73
2023/10/14 10:24:31;;;;;;;7.20;2.70;;;20.10;82.30;;;;;;5074585;28;20647;-74
2023/10/14 10:27:17;;;;;;;5.88;2.97;;;20.40;83.30;;;;;;5074849;28;20212;-74
2023/10/14 10:29:50;;;;;;;6.93;2.95;;;20.70;81.20;;;;;;5074057;28;20624;-74
2023/10/14 10:32:20;;;;;;;9.50;3.22;;;22.00;77.60;;;;;;5075140;28;20222;-74
2023/10/14 10:35:07;;;;;;;7.50;3.10;;;22.00;70.30;;;;;;5075017;28;20255;-74
2023/10/14 10:37:52;;;;;;;9.52;2.95;;;21.00;72.40;;;;;;5074186;28;20259;-75
2023/10/14 10:40:25;;;;;;;6.20;2.72;;;21.00;74.70;;;;;;5073832;28;20176;-74
2023/10/14 10:43:11;;;;;;;9.27;2.75;;;20.30;77.20;;;;;;5074257;28;20172;-73
2023/10/14 10:45:42;;;;;;;10.18;3.15;;;20.20;76.90;;;;;;5074805;28;20169;-73
2023/10/14 10:48:14;;;;;;;10.27;2.80;;;20.40;77.30;;;;;;5073972;28;20239;-73
2023/10/14 10:50:41;;;;;;;11.30;3.03;;;20.10;79.50;;;;;;5074354;28;20179;-72
2023/10/14 10:53:07;;;;;;;6.40;2.75;;;19.80;79.70;;;;;;5073454;28;20263;-73
2023/10/14 10:55:40;;;;;;;5.90;2.42;;;20.00;84.30;;;;;;5073780;28;20584;-73
2023/10/14 10:58:13;;;;;;;8.45;2.80;;;19.40;80.70;;;;;;5073673;28;20172;-73
2023/10/14 11:00:45;;;;;;;8.23;2.92;;;19.30;84.10;;;;;;5073842;28;20177;-74
2023/10/14 11:03:14;;;;;;;9.23;3.80;;;18.90;85.50;;;;;;5073931;28;20185;-73
2023/10/14 11:05:42;;;;;;;8.68;2.55;;;18.20;90.90;;;;;;5073907;28;20168;-73
2023/10/14 11:08:08;;;;;;;11.15;3.20;;;17.90;93.90;;;;;;5073440;28;20226;-74
2023/10/14 11:10:42;;;;;;;9.90;2.33;;;17.40;99.90;;;;;;5073752;28;20188;-75
2023/10/14 11:13:13;;;;;;;10.43;2.92;;;16.60;99.90;;;;;;5072025;28;20178;-75
2023/10/14 11:15:40;;;;;;;11.98;3.30;;;16.10;99.90;;;;;;5072318;28;20618;-75
2023/10/14 11:18:06;;;;;;;15.77;3.40;;;15.70;99.90;;;;;;5073638;28;20177;-74
2023/10/14 11:20:36;;;;;;;8.63;2.73;;;15.30;99.90;;;;;;5073661;28;20176;-74
2023/10/14 11:23:08;;;;;;;9.57;2.87;;;15.10;99.90;;;;;;5071699;28;20290;-74
2023/10/14 11:25:44;;;;;;;11.77;2.80;;;14.90;99.90;;;;;;5073793;28;20180;-74
2023/10/14 11:28:14;;;;;;;9.10;2.80;;;14.90;99.90;;;;;;5072888;28;20208;-75
2023/10/14 11:30:49;;;;;;;11.50;2.90;;;15.00;99.90;;;;;;5073006;28;20563;-74
2023/10/14 11:33:17;;;;;;;12.23;2.87;;;15.10;99.90;;;;;;5073539;28;20167;-75
2023/10/14 11:35:43;;;;;;;10.40;3.03;;;15.30;99.90;;;;;;5072240;28;20183;-75
2023/10/14 11:38:13;;;;;;;11.93;2.93;;;15.30;99.90;;;;;;5073380;28;20168;-75
2023/10/14 11:40:50;;;;;;;9.40;2.80;;;15.70;99.90;;;;;;5073359;28;20168;-73
2023/10/14 11:43:17;;;;;;;11.10;2.90;;;16.10;99.90;;;;;;5073141;28;20168;-75
2023/10/14 11:45:45;;;;;;;7.35;2.60;;;16.10;99.90;;;;;;5073132;28;20259;-75
2023/10/14 11:48:30;;;;;;;9.37;3.23;;;16.10;99.90;;;;;;5073195;28;20206;-75
2023/10/14 11:51:03;;;;;;;7.17;2.50;;;16.20;99.90;;;;;;5072538;28;20176;-76
2023/10/14 11:53:32;;;;;;;8.40;2.40;;;15.80;99.90;;;;;;5073012;28;20219;-75
2023/10/14 11:56:02;;;;;;;10.30;2.80;;;15.80;99.90;;;;;;5072895;28;20184;-73
2023/10/14 11:58:29;;;;;;;7.20;2.30;;;15.80;99.90;;;;;;5072037;28;20231;-75
2023/10/14 12:00:55;;;;;;;6.50;2.40;;;15.90;99.90;;;;;;5073174;28;20176;-74
2023/10/14 12:03:25;;;;;;;6.70;2.27;;;15.90;99.90;;;;;;5072904;28;20200;-75
2023/10/14 12:05:57;;;;;;;8.63;2.70;;;15.70;99.90;;;;;;5071968;28;20161;-75
2023/10/14 12:08:36;;;;;;;9.57;2.40;;;15.70;99.90;;;;;;5073234;28;20195;-75
2023/10/14 12:11:03;;;;;;;5.20;2.10;;;15.70;99.90;;;;;;5072041;28;20264;-77
2023/10/14 12:13:30;;;;;;;7.30;2.23;;;15.70;99.90;;;;;;5071997;28;20222;-75
2023/10/14 12:15:56;;;;;;;8.40;2.60;;;15.80;99.90;;;;;;5072679;28;20184;-74
2023/10/14 12:18:21;;;;;;;9.23;2.20;;;15.90;99.90;;;;;;5072578;28;20165;-74
2023/10/14 12:20:48;;;;;;;10.13;2.53;;;16.00;99.90;;;;;;5087670;28;20171;-75
2023/10/14 12:23:19;;;;;;;10.77;2.93;;;15.90;99.90;;;;;;5072711;28;20176;-75
2023/10/14 12:25:49;;;;;;;8.27;2.60;;;16.00;99.60;;;;;;5072083;28;20168;-75
2023/10/14 12:28:18;;;;;;;9.20;2.83;;;15.90;98.60;;;;;;5072200;28;20199;-75
2023/10/14 12:30:46;;;;;;;8.57;2.40;;;15.90;98.60;;;;;;5072919;28;20234;-74
2023/10/14 12:33:19;;;;;;;7.27;1.93;;;15.90;98.10;;;;;;5071808;28;20180;-74
2023/10/14 12:35:45;;;;;;;6.53;2.20;;;15.80;98.90;;;;;;5072208;28;20215;-75
2023/10/14 12:38:19;;;;;;;5.07;1.77;;;16.00;99.00;;;;;;5072741;28;20617;-75
2023/10/14 12:40:45;;;;;;;8.87;2.10;;;16.10;98.00;;;;;;5072061;28;20172;-75
2023/10/14 12:43:12;;;;;;;5.50;2.13;;;16.10;98.70;;;;;;5072212;28;20249;-75
2023/10/14 12:45:38;;;;;;;5.87;1.97;;;16.20;97.80;;;;;;5072621;28;20655;-76
2023/10/14 12:48:10;;;;;;;5.27;2.03;;;16.10;96.60;;;;;;5071711;28;20223;-76
2023/10/14 12:50:46;;;;;;;9.13;1.90;;;15.80;97.00;;;;;;5072013;28;20168;-75
2023/10/14 12:53:12;;;;;;;7.70;2.10;;;15.60;97.80;;;;;;5072536;28;20188;-75
2023/10/14 12:55:42;;;;;;;4.80;2.10;;;15.60;97.20;;;;;;5072301;28;20565;-75
2023/10/14 12:58:07;;;;;;;7.67;2.20;;;15.80;97.70;;;;;;5072205;28;20314;-75
2023/10/14 13:00:35;;;;;;;6.90;2.30;;;16.10;98.20;;;;;;5072172;28;20271;-75
2023/10/14 13:03:05;;;;;;;6.73;2.03;;;16.30;97.30;;;;;;5071867;28;20246;-76
2023/10/14 13:05:31;;;;;;;7.17;2.40;;;16.00;99.10;;;;;;5071663;28;20230;-74
2023/10/14 13:07:56;;;;;;;8.73;2.37;;;15.70;99.70;;;;;;5072110;28;20209;-75
2023/10/14 13:10:23;;;;;;;5.63;2.13;;;15.60;99.90;;;;;;5072071;28;20169;-76
2023/10/14 13:12:55;;;;;;;10.73;2.70;;;15.50;99.90;;;;;;5076141;28;20524;-74
2023/10/14 13:15:28;;;;;;;6.47;2.30;;;15.40;99.90;;;;;;5075591;28;20222;-74
2023/10/14 13:18:07;;;;;;;6.10;2.23;;;15.40;99.90;;;;;;5075772;28;20189;-75
2023/10/14 13:20:35;;;;;;;6.63;2.27;;;15.30;99.90;;;;;;5075770;28;20160;-75
2023/10/14 13:23:09;;;;;;;6.67;2.40;;;15.30;99.90;;;;;;5075382;28;20216;-74
2023/10/14 13:25:39;;;;;;;6.83;2.10;;;15.50;99.90;;;;;;5075867;28;20211;-75
2023/10/14 13:28:09;;;;;;;9.07;3.00;;;15.60;99.90;;;;;;5091433;28;20289;-75
2023/10/14 13:30:36;;;;;;;8.43;2.97;;;15.60;99.90;;;;;;5073896;28;20572;-75
2023/10/14 13:33:05;;;;;;;10.60;2.37;;;15.50;99.90;;;;;;5075473;28;20168;-74